Dayton, OH

7:34 AM EDT on May 23, 2015 (GMT -0400)
Oak Creek | | Change Station
CLOSE
Current Station
Personal Weather Station
Location: Kettering, OH
Elevation: 1004 ft
Nearby Weather Stations

Elev 1004 ft 39.67 °N, 84.13 °W | Updated 4 minutes ago

Mostly Cloudy
Mostly Cloudy
53.8 °F
Feels Like 53.8 °F
N
0.3
Wind Variable Wind from NW
Gusts 3.1 mph

Today
High -- | Low -- °F
--% Chance of Precip.
Yesterday
High -- | Low -- °F
Precip. -- in
6:15 AM 8:51 PM
Waxing Crescent, 29% visible
Pressure 30.34 in
Visibility 10.0 miles
Clouds Clear
Dew Point 31 °F
Humidity 42%
Rainfall 0.00 in
Snow Depth Not available.
UV 0 out of 12
Pollen 9.00 out of 12
Air Quality Not available.
Flu Activity Local Activity
METAR KMGY 231053Z AUTO 10008KT 10SM CLR 12/05 A3035 RMK AO2 SLP274 T01220050

More Conditions Fewer Conditions

Pressure 30.34 in
Visibility 10.0 miles
Clouds Clear
Dew Point 31 °F
Humidity 42%
Rainfall 0.00 in
Snow Depth Not available.
UV 0 out of 12
Pollen 9.00 out of 12
Air Quality Not available.
Flu Activity Local Activity
METAR KMGY 231053Z AUTO 10008KT 10SM CLR 12/05 A3035 RMK AO2 SLP274 T01220050

More Conditions Fewer Conditions

10-Day Weather Forecast

Almanac

Astronomy

May. 23, 2015 Rise Set
Actual Time
Civil Twilight
Nautical Twilight
Astronomical Twilight
Moon
Length of Visible Light
Length of Day
Tomorrow will be .
, % of the Moon is Illuminated

Today's Extremes

State Highs State Lows

Community

WunderPhotos

Upload Photos

1,823,409 photos uploaded!

WunderBlogs® & News

Nearby

Air Quality

  Air Quality AQ Index Pollutant
Not available.

Snow Depth

Station Depth Elevation

Earthquake Activity

City Distance Mag. Time & Date
Minimum magnitude displayed is 2.5.

Coastal Water Temperatures

Place Temperature

Stations

Nearby Weather Stations

Station Location Temp. Windchill Dew Point Humidity Wind Precip. Elev Updated Type